Terminal Aerodrome Forecast
Issued by NWS Honolulu, HI

Home | Current Version | Previous Version | Text Only | Print | Product List | Glossary On
Versions: 1 2 3 4 5 6 7 8 9 10 11 12 13 14 15 16 17 18 19 20 21 22 23 24
000
FTPA31 PHFO 300816 AAA
TAFHNL
TAF AMD
PHNL 300816Z 3008/3112 05011KT P6SM VCSH FEW025 SCT045
     FM302000 06012G18KT P6SM FEW025 SCT045
     FM310500 04011KT P6SM FEW025 SCT045=

USA.gov is the U.S. government's official web portal to all federal, state and local government web resources and services.